Terminal Aerodrome Forecast
Issued by NWS Missoula, MT

Home | Current Version | Previous Version | Text Only | Print | Product List | Glossary On
Versions: 1 2 3 4 5 6 7 8 9 10 11 12 13
000
FTUS45 KMSO 111120
TAFGPI
TAF
KGPI 111120Z 1112/1212 VRB03KT 2SM -SN BR SCT010 OVC020
     FM111500 VRB03KT 4SM -SN BR SCT020 OVC030
     FM111800 18010KT P6SM VCSH BKN035
     FM121000 03015G25KT 3SM -SN BLSN SCT015 OVC035=

USA.gov is the U.S. government's official web portal to all federal, state and local government web resources and services.